createdAt,value
2022-10-21T00:00:37.632Z,10.37
2022-10-21T00:03:07.476Z,10.34
2022-10-21T00:05:37.090Z,10.28
2022-10-21T00:08:06.769Z,10.10
2022-10-21T00:13:09.096Z,10.19
2022-10-21T00:15:39.270Z,10.19
2022-10-21T00:18:08.881Z,10.23
2022-10-21T00:20:41.096Z,10.32
2022-10-21T00:23:10.766Z,10.32
2022-10-21T00:25:40.638Z,10.31
2022-10-21T00:28:11.602Z,10.23
2022-10-21T00:30:43.684Z,10.20
2022-10-21T00:33:13.293Z,10.20
2022-10-21T00:35:42.988Z,10.14
2022-10-21T00:38:12.952Z,10.08
2022-10-21T00:40:42.486Z,9.94
2022-10-21T00:43:14.055Z,9.86
2022-10-21T00:45:44.957Z,9.81
2022-10-21T00:48:20.037Z,9.82
2022-10-21T00:50:52.027Z,9.71
2022-10-21T00:53:22.031Z,9.63
2022-10-21T00:55:53.576Z,9.56
2022-10-21T00:58:26.357Z,9.47
2022-10-21T01:00:57.321Z,9.23
2022-10-21T01:03:27.820Z,9.13
2022-10-21T01:05:59.024Z,9.18
2022-10-21T01:08:29.023Z,9.29
2022-10-21T01:10:59.547Z,9.32
2022-10-21T01:13:35.202Z,9.37
2022-10-21T01:16:10.116Z,9.28
2022-10-21T01:18:43.214Z,9.24
2022-10-21T01:21:21.263Z,9.24
2022-10-21T01:24:01.134Z,9.00
2022-10-21T01:26:48.647Z,8.92
2022-10-21T01:29:29.942Z,9.05
2022-10-21T01:32:08.018Z,8.97
2022-10-21T01:34:40.917Z,8.99
2022-10-21T01:37:15.597Z,8.83
2022-10-21T01:39:47.485Z,8.75
2022-10-21T01:42:19.335Z,8.72
2022-10-21T01:44:52.186Z,8.54
2022-10-21T01:47:24.251Z,8.61
2022-10-21T01:49:55.705Z,8.52
2022-10-21T01:52:25.761Z,8.52
2022-10-21T01:54:57.349Z,8.25
2022-10-21T01:57:29.433Z,8.31
2022-10-21T02:00:01.052Z,8.17
2022-10-21T02:02:34.655Z,8.17
2022-10-21T02:05:07.023Z,8.30
2022-10-21T02:07:36.665Z,8.07
2022-10-21T02:10:06.722Z,8.12
2022-10-21T02:12:38.425Z,8.15
2022-10-21T02:15:10.070Z,8.14
2022-10-21T02:17:43.665Z,8.10
2022-10-21T02:20:14.370Z,8.01
2022-10-21T02:22:46.007Z,7.83
2022-10-21T02:25:18.123Z,7.82
2022-10-21T02:27:47.987Z,7.78
2022-10-21T02:30:17.543Z,7.94
2022-10-21T02:32:53.620Z,7.96
2022-10-21T02:35:30.057Z,8.00
2022-10-21T02:38:02.685Z,7.87
2022-10-21T02:40:35.943Z,7.64
2022-10-21T02:43:07.683Z,7.77
2022-10-21T02:45:39.774Z,7.80
2022-10-21T02:48:10.877Z,7.89
2022-10-21T02:50:40.669Z,7.80
2022-10-21T02:53:11.797Z,7.70
2022-10-21T02:55:41.445Z,7.57
2022-10-21T02:58:11.469Z,7.79
2022-10-21T03:00:41.121Z,7.61
2022-10-21T03:03:12.095Z,7.48
2022-10-21T03:05:41.941Z,7.44
2022-10-21T03:08:11.529Z,7.41
2022-10-21T03:10:41.089Z,7.34
2022-10-21T03:13:11.300Z,7.30
2022-10-21T03:15:41.310Z,7.44
2022-10-21T03:18:12.326Z,7.50
2022-10-21T03:20:41.935Z,7.44
2022-10-21T03:23:11.803Z,7.30
2022-10-21T03:25:41.421Z,7.18
2022-10-21T03:28:11.110Z,7.18
2022-10-21T03:30:40.780Z,7.26
2022-10-21T03:33:10.337Z,7.36
2022-10-21T03:35:41.327Z,7.36
2022-10-21T03:38:10.990Z,7.32
2022-10-21T03:40:40.736Z,7.18
2022-10-21T03:43:10.305Z,7.36
2022-10-21T03:45:40.152Z,7.28
2022-10-21T03:48:09.724Z,7.29
2022-10-21T03:50:41.128Z,7.18
2022-10-21T03:53:24.469Z,7.27
2022-10-21T03:56:00.414Z,7.24
2022-10-21T03:58:30.007Z,7.30
2022-10-21T04:00:59.547Z,7.44
2022-10-21T04:03:29.141Z,7.31
2022-10-21T04:06:00.223Z,7.25
2022-10-21T04:08:29.860Z,7.35
2022-10-21T04:10:59.889Z,7.34
2022-10-21T04:13:31.298Z,7.34
2022-10-21T04:16:02.914Z,7.27
2022-10-21T04:18:32.794Z,7.37
2022-10-21T04:21:03.895Z,7.34
2022-10-21T04:23:33.810Z,7.30
2022-10-21T04:26:03.934Z,7.31
2022-10-21T04:28:33.764Z,7.24
2022-10-21T04:31:03.427Z,7.34
2022-10-21T04:33:33.047Z,7.41
2022-10-21T04:36:03.965Z,7.43
2022-10-21T04:38:33.577Z,7.32
2022-10-21T04:41:04.270Z,7.28
2022-10-21T04:43:33.935Z,7.54
2022-10-21T04:46:07.546Z,7.43
2022-10-21T04:48:39.653Z,7.38
2022-10-21T04:51:10.804Z,7.34
2022-10-21T04:53:40.387Z,7.42
2022-10-21T04:56:10.136Z,7.49
2022-10-21T04:58:39.654Z,7.42
2022-10-21T05:01:09.216Z,7.47
2022-10-21T05:03:38.900Z,7.49
2022-10-21T05:06:08.507Z,7.49
2022-10-21T05:08:39.466Z,7.57
2022-10-21T05:11:09.159Z,7.54
2022-10-21T05:13:39.361Z,7.48
2022-10-21T05:16:09.375Z,7.76
2022-10-21T05:18:39.074Z,7.59
2022-10-21T05:21:08.741Z,7.62
2022-10-21T05:23:40.001Z,7.74
2022-10-21T05:26:09.966Z,7.74
2022-10-21T05:28:39.503Z,7.88
2022-10-21T05:31:09.078Z,7.97
2022-10-21T05:33:38.639Z,8.00
2022-10-21T05:36:08.942Z,7.97
2022-10-21T05:38:39.968Z,8.11
2022-10-21T05:41:10.958Z,8.08
2022-10-21T05:43:40.555Z,8.21
2022-10-21T05:46:10.182Z,8.35
2022-10-21T05:48:39.843Z,8.35
2022-10-21T05:51:09.567Z,8.34
2022-10-21T05:53:40.918Z,8.46
2022-10-21T05:56:10.526Z,8.44
2022-10-21T05:58:40.153Z,8.30
2022-10-21T06:01:10.001Z,8.44
2022-10-21T06:03:37.791Z,8.46
2022-10-21T06:06:08.257Z,8.43
2022-10-21T06:08:39.122Z,8.37
2022-10-21T06:11:09.988Z,8.52
2022-10-21T06:13:39.691Z,8.71
2022-10-21T06:16:09.088Z,8.63
2022-10-21T06:18:38.044Z,8.71
2022-10-21T06:21:06.735Z,8.80
2022-10-21T06:23:35.407Z,8.81
2022-10-21T06:26:05.345Z,8.87
2022-10-21T06:28:36.659Z,8.83
2022-10-21T06:31:05.753Z,8.90
2022-10-21T06:33:34.441Z,9.04
2022-10-21T06:36:03.406Z,9.18
2022-10-21T06:38:33.704Z,9.30
2022-10-21T06:41:02.690Z,9.45
2022-10-21T06:43:31.463Z,9.57
2022-10-21T06:46:02.347Z,9.56
2022-10-21T06:48:31.123Z,9.56
2022-10-21T06:51:00.348Z,9.75
2022-10-21T06:53:28.995Z,9.86
2022-10-21T06:56:04.707Z,10.03
2022-10-21T06:58:33.254Z,10.10
2022-10-21T07:01:16.647Z,10.16
2022-10-21T07:03:56.929Z,10.34
2022-10-21T07:06:29.129Z,10.41
2022-10-21T07:08:59.678Z,10.52
2022-10-21T07:11:29.722Z,10.60
2022-10-21T07:14:00.857Z,10.57
2022-10-21T07:16:33.322Z,10.64
2022-10-21T07:19:02.983Z,10.74
2022-10-21T07:21:33.469Z,10.86
2022-10-21T07:24:03.054Z,10.95
2022-10-21T07:26:33.169Z,11.07
2022-10-21T07:29:03.094Z,11.22
2022-10-21T07:31:35.405Z,11.32
2022-10-21T07:34:06.430Z,11.39
2022-10-21T07:36:37.622Z,11.39
2022-10-21T07:39:08.338Z,11.55
2022-10-21T07:41:39.177Z,11.67
2022-10-21T07:44:09.530Z,11.68
2022-10-21T07:46:40.962Z,11.82
2022-10-21T07:49:11.026Z,11.96
2022-10-21T07:51:41.180Z,11.89
2022-10-21T07:54:10.821Z,11.90
2022-10-21T07:56:41.717Z,11.93
2022-10-21T07:59:13.445Z,12.12
2022-10-21T08:01:45.890Z,12.28
2022-10-21T08:04:16.834Z,12.39
2022-10-21T08:06:48.018Z,12.38
2022-10-21T08:09:18.219Z,12.50
2022-10-21T08:11:48.974Z,12.66
2022-10-21T08:14:19.404Z,12.62
2022-10-21T08:16:54.024Z,12.71
2022-10-21T08:19:29.379Z,12.70
2022-10-21T08:22:00.878Z,12.75
2022-10-21T08:24:30.546Z,12.85
2022-10-21T08:27:00.179Z,12.93
2022-10-21T08:29:29.738Z,13.03
2022-10-21T08:32:00.650Z,13.13
2022-10-21T08:34:30.194Z,12.91
2022-10-21T08:37:19.169Z,13.09
2022-10-21T08:39:50.892Z,13.23
2022-10-21T08:42:20.624Z,13.37
2022-10-21T08:44:55.162Z,13.49
2022-10-21T08:47:32.055Z,13.63
2022-10-21T08:50:03.058Z,13.61
2022-10-21T08:52:39.130Z,13.64
2022-10-21T08:55:15.804Z,13.70
2022-10-21T08:57:45.622Z,13.71
2022-10-21T09:00:16.778Z,13.66
2022-10-21T09:03:00.892Z,13.71
2022-10-21T09:05:37.610Z,13.81
2022-10-21T09:08:13.766Z,13.84
2022-10-21T09:10:50.491Z,13.84
2022-10-21T09:13:25.119Z,13.85
2022-10-21T09:16:02.094Z,13.91
2022-10-21T09:18:40.265Z,13.95
2022-10-21T09:21:14.824Z,14.01
2022-10-21T09:23:51.010Z,14.09
2022-10-21T09:26:31.598Z,14.16
2022-10-21T09:29:02.490Z,14.08
2022-10-21T09:31:32.126Z,14.04
2022-10-21T09:34:04.849Z,14.07
2022-10-21T09:36:36.351Z,14.05
2022-10-21T09:39:08.558Z,14.09
2022-10-21T09:41:40.876Z,14.04
2022-10-21T09:44:16.461Z,14.13
2022-10-21T09:46:46.210Z,14.22
2022-10-21T09:49:47.947Z,14.25
2022-10-21T09:52:13.597Z,14.30
2022-10-21T09:54:44.134Z,14.47
2022-10-21T09:57:14.966Z,14.58
2022-10-21T09:59:54.308Z,14.62
2022-10-21T10:02:26.694Z,14.61
2022-10-21T10:04:58.186Z,14.50
2022-10-21T10:07:29.155Z,14.57
2022-10-21T10:09:59.261Z,14.70
2022-10-21T10:12:30.542Z,14.70
2022-10-21T10:15:21.330Z,14.69
2022-10-21T10:17:51.133Z,14.50
2022-10-21T10:20:22.209Z,14.99
2022-10-21T10:23:16.676Z,15.04
2022-10-21T10:25:50.647Z,15.04
2022-10-21T10:28:22.090Z,15.04
2022-10-21T10:30:53.628Z,15.01
2022-10-21T10:33:25.006Z,15.15
2022-10-21T10:35:57.514Z,15.24
2022-10-21T10:38:29.779Z,15.25
2022-10-21T10:41:05.334Z,15.43
2022-10-21T10:43:35.908Z,15.49
2022-10-21T10:46:06.693Z,15.57
2022-10-21T10:48:38.791Z,15.66
2022-10-21T10:51:24.265Z,15.63
2022-10-21T10:54:01.410Z,15.63
2022-10-21T10:56:35.542Z,15.49
2022-10-21T10:59:12.420Z,15.57
2022-10-21T11:01:47.579Z,15.45
2022-10-21T11:04:18.691Z,15.46
2022-10-21T11:06:53.639Z,15.39
2022-10-21T11:09:27.269Z,15.30
2022-10-21T11:11:58.452Z,15.43
2022-10-21T11:14:28.910Z,15.58
2022-10-21T11:17:05.429Z,15.58
2022-10-21T11:19:41.160Z,15.57
2022-10-21T11:22:16.435Z,15.52
2022-10-21T11:24:56.404Z,15.57
2022-10-21T11:27:30.236Z,15.53
2022-10-21T11:30:03.861Z,15.54
2022-10-21T11:32:41.801Z,15.48
2022-10-21T11:35:18.835Z,15.44
2022-10-21T11:37:58.517Z,15.44
2022-10-21T11:40:33.831Z,15.46
2022-10-21T11:43:10.204Z,15.52
2022-10-21T11:45:46.249Z,15.55
2022-10-21T11:48:21.490Z,15.74
2022-10-21T11:51:00.328Z,15.61
2022-10-21T11:53:40.039Z,15.58
2022-10-21T11:56:16.463Z,15.56
2022-10-21T11:58:50.775Z,15.52
2022-10-21T12:01:25.245Z,15.43
2022-10-21T12:04:04.331Z,15.47
2022-10-21T12:06:38.477Z,15.50
2022-10-21T12:09:13.782Z,15.51
2022-10-21T12:11:47.361Z,15.57
2022-10-21T12:14:27.624Z,15.57
2022-10-21T12:17:02.830Z,15.51
2022-10-21T12:19:33.042Z,15.51
2022-10-21T12:22:03.263Z,15.45
2022-10-21T12:24:43.498Z,15.54
2022-10-21T12:27:18.002Z,15.48
2022-10-21T12:29:57.361Z,15.41
2022-10-21T12:32:30.634Z,15.40
2022-10-21T12:35:02.042Z,15.40
2022-10-21T12:38:05.781Z,15.44
2022-10-21T12:40:38.591Z,15.44
2022-10-21T12:43:17.634Z,15.49
2022-10-21T12:45:47.680Z,15.54
2022-10-21T12:48:29.210Z,15.64
2022-10-21T12:51:00.515Z,15.53
2022-10-21T12:53:36.610Z,15.48
2022-10-21T12:56:08.309Z,15.50
2022-10-21T12:58:39.644Z,15.44
2022-10-21T13:01:29.293Z,15.45
2022-10-21T13:03:59.003Z,15.40
2022-10-21T13:06:47.286Z,15.37
2022-10-21T13:09:40.228Z,15.39
2022-10-21T13:12:26.907Z,15.47
2022-10-21T13:14:58.235Z,15.50
2022-10-21T13:17:32.617Z,15.46
2022-10-21T13:20:20.734Z,15.50
2022-10-21T13:22:50.702Z,15.53
2022-10-21T13:25:22.631Z,15.55
2022-10-21T13:27:55.286Z,15.59
2022-10-21T13:30:28.462Z,15.48
2022-10-21T13:33:02.067Z,15.52
2022-10-21T13:35:34.178Z,15.51
2022-10-21T13:38:05.253Z,15.46
2022-10-21T13:40:39.666Z,15.47
2022-10-21T13:43:14.889Z,15.47
2022-10-21T13:45:47.970Z,15.47
2022-10-21T13:48:18.459Z,15.46
2022-10-21T13:50:49.078Z,15.44
2022-10-21T13:53:26.077Z,15.47
2022-10-21T13:55:56.835Z,15.47
2022-10-21T13:58:28.533Z,15.43
2022-10-21T14:00:59.111Z,15.41
2022-10-21T14:03:29.159Z,15.44
2022-10-21T14:06:00.224Z,15.46
2022-10-21T14:08:33.171Z,15.41
2022-10-21T14:11:05.889Z,15.44
2022-10-21T14:13:37.899Z,15.43
2022-10-21T14:16:09.458Z,15.40
2022-10-21T14:18:41.404Z,15.32
2022-10-21T14:21:15.075Z,15.31
2022-10-21T14:23:46.661Z,15.27
2022-10-21T14:26:16.447Z,15.26
2022-10-21T14:28:48.527Z,15.31
2022-10-21T14:31:19.113Z,15.38
2022-10-21T14:33:49.804Z,15.35
2022-10-21T14:36:20.616Z,15.35
2022-10-21T14:38:54.728Z,15.25
2022-10-21T14:41:26.310Z,15.23
2022-10-21T14:43:59.775Z,15.20
2022-10-21T14:46:29.651Z,15.19
2022-10-21T14:49:02.557Z,15.13
2022-10-21T14:51:36.236Z,15.11
2022-10-21T14:54:07.346Z,15.13
2022-10-21T14:56:38.547Z,15.09
2022-10-21T14:59:17.676Z,15.09
2022-10-21T15:01:47.491Z,15.07
2022-10-21T15:04:31.873Z,15.03
2022-10-21T15:07:02.039Z,14.96
2022-10-21T15:09:31.542Z,14.93
2022-10-21T15:12:16.918Z,14.87
2022-10-21T15:14:48.276Z,14.75
2022-10-21T15:17:18.334Z,14.69
2022-10-21T15:19:48.668Z,14.60
2022-10-21T15:22:29.386Z,14.53
2022-10-21T15:25:01.741Z,14.48
2022-10-21T15:27:36.988Z,14.42
2022-10-21T15:30:16.167Z,14.35
2022-10-21T15:32:45.754Z,14.37
2022-10-21T15:35:16.279Z,14.28
2022-10-21T15:37:48.793Z,14.24
2022-10-21T15:40:19.047Z,14.15
2022-10-21T15:42:48.874Z,14.08
2022-10-21T15:45:22.098Z,14.02
2022-10-21T15:47:53.222Z,13.95
2022-10-21T15:50:23.796Z,13.88
2022-10-21T15:52:53.669Z,13.87
2022-10-21T15:55:23.431Z,13.86
2022-10-21T15:57:52.957Z,13.79
2022-10-21T16:00:24.213Z,13.68
2022-10-21T16:02:53.731Z,13.63
2022-10-21T16:05:23.427Z,13.56
2022-10-21T16:07:52.906Z,13.49
2022-10-21T16:10:24.933Z,13.49
2022-10-21T16:12:55.337Z,13.39
2022-10-21T16:15:26.914Z,13.27
2022-10-21T16:17:57.604Z,13.27
2022-10-21T16:20:27.983Z,13.25
2022-10-21T16:23:00.547Z,13.19
2022-10-21T16:25:33.389Z,13.13
2022-10-21T16:28:02.851Z,13.05
2022-10-21T16:30:35.465Z,12.99
2022-10-21T16:33:05.139Z,12.95
2022-10-21T16:35:34.644Z,12.91
2022-10-21T16:38:04.128Z,12.84
2022-10-21T16:40:35.170Z,12.79
2022-10-21T16:43:05.528Z,12.78
2022-10-21T16:45:36.721Z,12.68
2022-10-21T16:48:06.469Z,12.69
2022-10-21T16:50:39.404Z,12.61
2022-10-21T16:53:09.406Z,12.56
2022-10-21T16:55:39.088Z,12.51
2022-10-21T16:58:08.853Z,12.51
2022-10-21T17:00:41.305Z,12.46
2022-10-21T17:03:11.980Z,12.47
2022-10-21T17:05:41.834Z,12.34
2022-10-21T17:08:11.434Z,12.26
2022-10-21T17:10:41.209Z,12.30
2022-10-21T17:13:12.199Z,12.23
2022-10-21T17:15:43.760Z,12.17
2022-10-21T17:18:15.645Z,12.16
2022-10-21T17:20:45.725Z,12.17
2022-10-21T17:23:15.385Z,12.16
2022-10-21T17:25:45.077Z,12.22
2022-10-21T17:28:14.601Z,12.18
2022-10-21T17:30:45.581Z,12.16
2022-10-21T17:33:15.586Z,12.02
2022-10-21T17:35:45.455Z,12.01
2022-10-21T17:38:15.098Z,11.98
2022-10-21T17:40:44.783Z,11.96
2022-10-21T17:43:14.301Z,11.91
2022-10-21T17:45:45.222Z,11.90
2022-10-21T17:48:14.710Z,11.88
2022-10-21T17:50:44.251Z,11.89
2022-10-21T17:53:13.846Z,11.87
2022-10-21T17:55:43.567Z,11.80
2022-10-21T17:58:13.060Z,11.80
2022-10-21T18:00:44.641Z,11.80
2022-10-21T18:03:18.159Z,11.76
2022-10-21T18:05:48.480Z,11.78
2022-10-21T18:08:17.973Z,11.76
2022-10-21T18:10:52.299Z,11.81
2022-10-21T18:13:22.578Z,11.69
2022-10-21T18:15:52.947Z,11.60
2022-10-21T18:18:25.866Z,11.62
2022-10-21T18:20:55.463Z,11.62
2022-10-21T18:23:24.965Z,11.46
2022-10-21T18:25:54.494Z,11.57
2022-10-21T18:28:24.149Z,11.61
2022-10-21T18:30:53.735Z,11.61
2022-10-21T18:33:24.659Z,11.62
2022-10-21T18:35:54.651Z,11.66
2022-10-21T18:38:24.315Z,11.67
2022-10-21T18:41:01.861Z,11.60
2022-10-21T18:43:38.292Z,11.58
2022-10-21T18:46:07.954Z,11.62
2022-10-21T18:48:38.980Z,11.61
2022-10-21T18:51:09.288Z,11.43
2022-10-21T18:53:39.866Z,11.26
2022-10-21T18:56:10.203Z,11.36
2022-10-21T18:58:40.582Z,11.19
2022-10-21T19:01:10.593Z,11.11
2022-10-21T19:03:41.872Z,11.01
2022-10-21T19:06:15.620Z,11.09
2022-10-21T19:08:45.535Z,11.11
2022-10-21T19:11:15.218Z,11.12
2022-10-21T19:13:45.313Z,11.08
2022-10-21T19:16:15.698Z,10.91
2022-10-21T19:18:46.955Z,10.91
2022-10-21T19:21:18.225Z,10.78
2022-10-21T19:23:48.423Z,10.79
2022-10-21T19:26:19.944Z,10.84
2022-10-21T19:28:51.992Z,10.90
2022-10-21T19:31:22.417Z,10.79
2022-10-21T19:33:55.079Z,10.76
2022-10-21T19:36:24.607Z,10.72
2022-10-21T19:38:55.424Z,10.71
2022-10-21T19:41:25.067Z,10.65
2022-10-21T19:43:58.367Z,10.61
2022-10-21T19:46:29.868Z,10.66
2022-10-21T19:49:01.313Z,10.65
2022-10-21T19:51:30.810Z,10.72
2022-10-21T19:54:00.659Z,10.71
2022-10-21T19:56:33.385Z,10.45
2022-10-21T19:59:04.642Z,10.15
2022-10-21T20:01:34.902Z,10.48
2022-10-21T20:04:06.437Z,10.53
2022-10-21T20:06:36.731Z,10.25
2022-10-21T20:09:09.736Z,10.18
2022-10-21T20:11:40.701Z,10.25
2022-10-21T20:14:12.329Z,9.83
2022-10-21T20:16:43.249Z,9.81
2022-10-21T20:19:14.823Z,9.71
2022-10-21T20:21:44.594Z,9.75
2022-10-21T20:24:15.282Z,9.90
2022-10-21T20:26:45.828Z,10.12
2022-10-21T20:29:16.081Z,10.05
2022-10-21T20:31:45.651Z,9.93
2022-10-21T20:34:16.667Z,9.95
2022-10-21T20:36:46.219Z,10.13
2022-10-21T20:39:15.763Z,10.04
2022-10-21T20:41:45.453Z,9.85
2022-10-21T20:44:16.983Z,9.78
2022-10-21T20:46:47.662Z,10.03
2022-10-21T20:49:18.502Z,10.10
2022-10-21T20:51:48.020Z,9.93
2022-10-21T20:54:18.639Z,9.78
2022-10-21T20:56:48.214Z,9.43
2022-10-21T20:59:18.071Z,9.64
2022-10-21T21:01:48.304Z,9.76
2022-10-21T21:04:20.854Z,9.68
2022-10-21T21:06:50.897Z,9.70
2022-10-21T21:09:43.574Z,9.81
2022-10-21T21:12:11.862Z,9.82
2022-10-21T21:14:42.096Z,9.88
2022-10-21T21:17:12.194Z,9.96
2022-10-21T21:19:43.257Z,9.77
2022-10-21T21:22:12.798Z,9.64
2022-10-21T21:24:42.674Z,9.57
2022-10-21T21:27:12.278Z,9.55
2022-10-21T21:29:41.942Z,9.29
2022-10-21T21:32:11.422Z,9.37
2022-10-21T21:34:40.966Z,9.39
2022-10-21T21:37:11.809Z,9.39
2022-10-21T21:39:41.321Z,9.38
2022-10-21T21:42:10.850Z,9.32
2022-10-21T21:44:40.343Z,9.34
2022-10-21T21:47:09.873Z,9.53
2022-10-21T21:49:39.436Z,9.56
2022-10-21T21:52:08.925Z,9.67
2022-10-21T21:54:40.076Z,9.59
2022-10-21T21:57:26.776Z,9.50
2022-10-21T21:59:57.447Z,9.34
2022-10-21T22:02:27.011Z,9.43
2022-10-21T22:04:56.699Z,9.34
2022-10-21T22:07:26.495Z,9.39
2022-10-21T22:09:57.516Z,9.45
2022-10-21T22:12:27.479Z,9.37
2022-10-21T22:14:57.698Z,9.23
2022-10-21T22:17:27.287Z,9.21
2022-10-21T22:19:57.088Z,9.25
2022-10-21T22:22:26.624Z,9.16
2022-10-21T22:24:57.521Z,9.18
2022-10-21T22:27:27.275Z,9.18
2022-10-21T22:29:57.238Z,8.97
2022-10-21T22:32:26.712Z,9.10
2022-10-21T22:34:56.266Z,9.22
2022-10-21T22:37:25.820Z,9.02
2022-10-21T22:39:55.491Z,9.05
2022-10-21T22:42:26.327Z,9.17
2022-10-21T22:44:55.770Z,9.01
2022-10-21T22:47:25.204Z,8.96
2022-10-21T22:49:54.710Z,8.90
2022-10-21T22:52:24.226Z,8.94
2022-10-21T22:54:53.732Z,8.94
2022-10-21T22:57:23.571Z,8.85
2022-10-21T22:59:54.456Z,8.89
2022-10-21T23:02:24.352Z,8.91
2022-10-21T23:04:53.903Z,8.88
2022-10-21T23:07:23.563Z,8.72
2022-10-21T23:09:53.173Z,8.62
2022-10-21T23:12:23.477Z,8.67
2022-10-21T23:14:54.770Z,8.73
2022-10-21T23:17:25.665Z,8.71
2022-10-21T23:19:55.303Z,8.54
2022-10-21T23:22:25.315Z,8.48
2022-10-21T23:24:54.811Z,8.43
2022-10-21T23:27:24.338Z,8.39
2022-10-21T23:29:55.247Z,8.46
2022-10-21T23:32:24.809Z,8.59
2022-10-21T23:34:54.323Z,8.55
2022-10-21T23:37:24.225Z,8.46
2022-10-21T23:39:53.684Z,8.44
2022-10-21T23:42:23.159Z,8.42
2022-10-21T23:44:52.719Z,8.48
2022-10-21T23:47:24.210Z,8.47
2022-10-21T23:49:53.686Z,8.42
2022-10-21T23:52:23.197Z,8.33
2022-10-21T23:54:52.752Z,8.28
2022-10-21T23:57:22.219Z,8.35
2022-10-21T23:59:51.744Z,8.36
